sensor_id;sensor_type;location;lat;lon;timestamp;P1;durP1;ratioP1;P2;durP2;ratioP2
54145;SDS011;65909;49.422;7.738;2023-07-09T00:00:06;4.13;;;2.70;;
54145;SDS011;65909;49.422;7.738;2023-07-09T00:02:36;7.53;;;3.13;;
54145;SDS011;65909;49.422;7.738;2023-07-09T00:05:01;3.33;;;2.43;;
54145;SDS011;65909;49.422;7.738;2023-07-09T00:07:30;3.57;;;2.07;;
54145;SDS011;65909;49.422;7.738;2023-07-09T00:09:55;4.78;;;2.60;;
54145;SDS011;65909;49.422;7.738;2023-07-09T00:12:21;3.55;;;2.35;;
54145;SDS011;65909;49.422;7.738;2023-07-09T00:14:46;4.40;;;2.33;;
54145;SDS011;65909;49.422;7.738;2023-07-09T00:17:16;5.47;;;2.53;;
54145;SDS011;65909;49.422;7.738;2023-07-09T00:19:42;5.50;;;2.40;;
54145;SDS011;65909;49.422;7.738;2023-07-09T00:22:13;3.75;;;2.60;;
54145;SDS011;65909;49.422;7.738;2023-07-09T00:24:41;4.80;;;2.70;;
54145;SDS011;65909;49.422;7.738;2023-07-09T00:27:13;5.07;;;2.67;;
54145;SDS011;65909;49.422;7.738;2023-07-09T00:29:39;9.65;;;3.15;;
54145;SDS011;65909;49.422;7.738;2023-07-09T00:32:08;5.40;;;2.50;;
54145;SDS011;65909;49.422;7.738;2023-07-09T00:34:35;4.15;;;2.58;;
54145;SDS011;65909;49.422;7.738;2023-07-09T00:37:00;5.07;;;2.50;;
54145;SDS011;65909;49.422;7.738;2023-07-09T00:39:25;8.47;;;2.83;;
54145;SDS011;65909;49.422;7.738;2023-07-09T00:41:51;4.28;;;2.53;;
54145;SDS011;65909;49.422;7.738;2023-07-09T00:49:12;6.40;;;3.13;;
54145;SDS011;65909;49.422;7.738;2023-07-09T00:51:42;3.67;;;2.28;;
54145;SDS011;65909;49.422;7.738;2023-07-09T00:54:12;3.25;;;2.45;;
54145;SDS011;65909;49.422;7.738;2023-07-09T00:56:40;4.32;;;2.50;;
54145;SDS011;65909;49.422;7.738;2023-07-09T00:59:08;6.57;;;2.58;;
54145;SDS011;65909;49.422;7.738;2023-07-09T01:01:34;4.32;;;2.92;;
54145;SDS011;65909;49.422;7.738;2023-07-09T01:04:00;5.93;;;2.53;;
54145;SDS011;65909;49.422;7.738;2023-07-09T01:06:44;4.10;;;2.55;;
54145;SDS011;65909;49.422;7.738;2023-07-09T01:09:10;5.38;;;2.70;;
54145;SDS011;65909;49.422;7.738;2023-07-09T01:11:35;4.40;;;2.78;;
54145;SDS011;65909;49.422;7.738;2023-07-09T01:14:03;4.95;;;3.10;;
54145;SDS011;65909;49.422;7.738;2023-07-09T01:16:30;4.57;;;2.70;;
54145;SDS011;65909;49.422;7.738;2023-07-09T01:18:56;4.63;;;2.90;;
54145;SDS011;65909;49.422;7.738;2023-07-09T01:21:22;3.90;;;2.70;;
54145;SDS011;65909;49.422;7.738;2023-07-09T01:23:47;3.57;;;2.53;;
54145;SDS011;65909;49.422;7.738;2023-07-09T01:26:14;4.68;;;2.88;;
54145;SDS011;65909;49.422;7.738;2023-07-09T01:28:39;5.82;;;2.50;;
54145;SDS011;65909;49.422;7.738;2023-07-09T01:31:08;5.88;;;2.67;;
54145;SDS011;65909;49.422;7.738;2023-07-09T01:33:33;3.97;;;2.70;;
54145;SDS011;65909;49.422;7.738;2023-07-09T01:35:58;7.63;;;3.20;;
54145;SDS011;65909;49.422;7.738;2023-07-09T01:38:25;4.18;;;2.60;;
54145;SDS011;65909;49.422;7.738;2023-07-09T01:40:55;6.30;;;2.97;;
54145;SDS011;65909;49.422;7.738;2023-07-09T01:43:21;6.18;;;2.85;;
54145;SDS011;65909;49.422;7.738;2023-07-09T01:45:46;3.97;;;2.63;;
54145;SDS011;65909;49.422;7.738;2023-07-09T01:48:14;5.65;;;3.30;;
54145;SDS011;65909;49.422;7.738;2023-07-09T01:50:40;6.13;;;2.72;;
54145;SDS011;65909;49.422;7.738;2023-07-09T01:53:08;5.50;;;3.13;;
54145;SDS011;65909;49.422;7.738;2023-07-09T01:55:33;4.65;;;2.72;;
54145;SDS011;65909;49.422;7.738;2023-07-09T01:57:58;5.07;;;2.67;;
54145;SDS011;65909;49.422;7.738;2023-07-09T02:00:24;4.73;;;2.90;;
54145;SDS011;65909;49.422;7.738;2023-07-09T02:02:49;4.97;;;3.00;;
54145;SDS011;65909;49.422;7.738;2023-07-09T02:05:16;5.85;;;3.45;;
54145;SDS011;65909;49.422;7.738;2023-07-09T02:07:41;8.05;;;4.10;;
54145;SDS011;65909;49.422;7.738;2023-07-09T02:10:07;5.05;;;3.15;;
54145;SDS011;65909;49.422;7.738;2023-07-09T02:12:32;4.70;;;2.75;;
54145;SDS011;65909;49.422;7.738;2023-07-09T02:14:57;4.87;;;3.10;;
54145;SDS011;65909;49.422;7.738;2023-07-09T02:17:22;5.37;;;3.17;;
54145;SDS011;65909;49.422;7.738;2023-07-09T02:19:47;6.60;;;3.40;;
54145;SDS011;65909;49.422;7.738;2023-07-09T02:22:13;4.53;;;2.80;;
54145;SDS011;65909;49.422;7.738;2023-07-09T02:24:38;5.67;;;3.13;;
54145;SDS011;65909;49.422;7.738;2023-07-09T02:27:04;6.05;;;3.20;;
54145;SDS011;65909;49.422;7.738;2023-07-09T02:29:31;4.93;;;3.20;;
54145;SDS011;65909;49.422;7.738;2023-07-09T02:31:57;4.15;;;2.85;;
54145;SDS011;65909;49.422;7.738;2023-07-09T02:34:23;6.22;;;3.42;;
54145;SDS011;65909;49.422;7.738;2023-07-09T02:36:51;4.45;;;2.85;;
54145;SDS011;65909;49.422;7.738;2023-07-09T02:39:16;6.32;;;3.05;;
54145;SDS011;65909;49.422;7.738;2023-07-09T02:41:42;7.78;;;3.55;;
54145;SDS011;65909;49.422;7.738;2023-07-09T02:44:07;7.67;;;3.20;;
54145;SDS011;65909;49.422;7.738;2023-07-09T02:46:33;4.93;;;3.03;;
54145;SDS011;65909;49.422;7.738;2023-07-09T02:48:59;5.88;;;3.05;;
54145;SDS011;65909;49.422;7.738;2023-07-09T02:51:24;6.43;;;3.35;;
54145;SDS011;65909;49.422;7.738;2023-07-09T02:53:53;4.95;;;3.35;;
54145;SDS011;65909;49.422;7.738;2023-07-09T02:56:19;4.35;;;2.83;;
54145;SDS011;65909;49.422;7.738;2023-07-09T02:58:44;9.67;;;3.23;;
54145;SDS011;65909;49.422;7.738;2023-07-09T03:01:09;6.47;;;3.00;;
54145;SDS011;65909;49.422;7.738;2023-07-09T03:03:34;5.13;;;3.37;;
54145;SDS011;65909;49.422;7.738;2023-07-09T03:05:59;6.57;;;3.37;;
54145;SDS011;65909;49.422;7.738;2023-07-09T03:08:25;6.07;;;3.10;;
54145;SDS011;65909;49.422;7.738;2023-07-09T03:10:50;5.97;;;3.27;;
54145;SDS011;65909;49.422;7.738;2023-07-09T03:13:15;5.00;;;3.20;;
54145;SDS011;65909;49.422;7.738;2023-07-09T03:15:40;7.33;;;4.40;;
54145;SDS011;65909;49.422;7.738;2023-07-09T03:18:05;5.35;;;3.22;;
54145;SDS011;65909;49.422;7.738;2023-07-09T03:20:31;7.33;;;3.30;;
54145;SDS011;65909;49.422;7.738;2023-07-09T03:22:56;5.97;;;3.40;;
54145;SDS011;65909;49.422;7.738;2023-07-09T03:25:21;6.70;;;3.43;;
54145;SDS011;65909;49.422;7.738;2023-07-09T03:27:47;6.17;;;3.47;;
54145;SDS011;65909;49.422;7.738;2023-07-09T03:30:13;5.75;;;3.85;;
54145;SDS011;65909;49.422;7.738;2023-07-09T03:32:38;6.43;;;3.23;;
54145;SDS011;65909;49.422;7.738;2023-07-09T03:35:03;4.70;;;3.37;;
54145;SDS011;65909;49.422;7.738;2023-07-09T03:37:28;6.32;;;3.78;;
54145;SDS011;65909;49.422;7.738;2023-07-09T03:39:53;5.53;;;3.63;;
54145;SDS011;65909;49.422;7.738;2023-07-09T03:42:19;5.77;;;3.80;;
54145;SDS011;65909;49.422;7.738;2023-07-09T03:44:44;5.23;;;3.40;;
54145;SDS011;65909;49.422;7.738;2023-07-09T03:47:09;8.57;;;4.10;;
54145;SDS011;65909;49.422;7.738;2023-07-09T03:49:34;7.03;;;3.77;;
54145;SDS011;65909;49.422;7.738;2023-07-09T03:51:59;7.63;;;3.40;;
54145;SDS011;65909;49.422;7.738;2023-07-09T03:54:24;5.17;;;3.70;;
54145;SDS011;65909;49.422;7.738;2023-07-09T03:56:50;8.23;;;3.90;;
54145;SDS011;65909;49.422;7.738;2023-07-09T03:59:15;6.83;;;3.40;;
54145;SDS011;65909;49.422;7.738;2023-07-09T04:01:40;7.27;;;3.50;;
54145;SDS011;65909;49.422;7.738;2023-07-09T04:04:11;5.95;;;3.40;;
54145;SDS011;65909;49.422;7.738;2023-07-09T04:06:36;5.25;;;3.38;;
54145;SDS011;65909;49.422;7.738;2023-07-09T04:09:01;6.93;;;3.40;;
54145;SDS011;65909;49.422;7.738;2023-07-09T04:11:26;6.87;;;3.80;;
54145;SDS011;65909;49.422;7.738;2023-07-09T04:13:51;6.10;;;3.27;;
54145;SDS011;65909;49.422;7.738;2023-07-09T04:16:17;6.90;;;3.07;;
54145;SDS011;65909;49.422;7.738;2023-07-09T04:18:42;5.60;;;3.37;;
54145;SDS011;65909;49.422;7.738;2023-07-09T04:21:07;4.60;;;3.03;;
54145;SDS011;65909;49.422;7.738;2023-07-09T04:23:33;6.82;;;4.25;;
54145;SDS011;65909;49.422;7.738;2023-07-09T04:25:58;7.23;;;4.00;;
54145;SDS011;65909;49.422;7.738;2023-07-09T04:28:23;6.83;;;3.30;;
54145;SDS011;65909;49.422;7.738;2023-07-09T04:30:49;6.05;;;2.95;;
54145;SDS011;65909;49.422;7.738;2023-07-09T04:33:15;4.88;;;3.40;;
54145;SDS011;65909;49.422;7.738;2023-07-09T04:35:42;6.82;;;4.07;;
54145;SDS011;65909;49.422;7.738;2023-07-09T04:38:07;6.97;;;3.63;;
54145;SDS011;65909;49.422;7.738;2023-07-09T04:40:33;7.10;;;3.50;;
54145;SDS011;65909;49.422;7.738;2023-07-09T04:42:58;4.82;;;3.30;;
54145;SDS011;65909;49.422;7.738;2023-07-09T04:45:23;6.03;;;3.50;;
54145;SDS011;65909;49.422;7.738;2023-07-09T04:47:49;8.27;;;3.97;;
54145;SDS011;65909;49.422;7.738;2023-07-09T04:50:14;5.50;;;3.43;;
54145;SDS011;65909;49.422;7.738;2023-07-09T04:52:39;7.20;;;3.73;;
54145;SDS011;65909;49.422;7.738;2023-07-09T04:55:04;7.30;;;3.47;;
54145;SDS011;65909;49.422;7.738;2023-07-09T04:57:30;5.00;;;3.33;;
54145;SDS011;65909;49.422;7.738;2023-07-09T04:59:55;9.20;;;4.10;;
54145;SDS011;65909;49.422;7.738;2023-07-09T05:02:21;6.50;;;3.65;;
54145;SDS011;65909;49.422;7.738;2023-07-09T05:04:46;7.80;;;4.78;;
54145;SDS011;65909;49.422;7.738;2023-07-09T05:07:11;5.90;;;3.37;;
54145;SDS011;65909;49.422;7.738;2023-07-09T05:09:36;6.13;;;3.43;;
54145;SDS011;65909;49.422;7.738;2023-07-09T05:12:01;7.20;;;3.20;;
54145;SDS011;65909;49.422;7.738;2023-07-09T05:14:27;5.80;;;3.40;;
54145;SDS011;65909;49.422;7.738;2023-07-09T05:16:53;6.13;;;2.88;;
54145;SDS011;65909;49.422;7.738;2023-07-09T05:19:18;9.77;;;3.97;;
54145;SDS011;65909;49.422;7.738;2023-07-09T05:21:43;8.45;;;3.90;;
54145;SDS011;65909;49.422;7.738;2023-07-09T05:24:08;7.43;;;4.40;;
54145;SDS011;65909;49.422;7.738;2023-07-09T05:26:34;9.60;;;4.13;;
54145;SDS011;65909;49.422;7.738;2023-07-09T05:28:59;9.00;;;3.83;;
54145;SDS011;65909;49.422;7.738;2023-07-09T05:31:24;4.70;;;3.70;;
54145;SDS011;65909;49.422;7.738;2023-07-09T05:33:49;5.73;;;3.30;;
54145;SDS011;65909;49.422;7.738;2023-07-09T05:36:15;6.17;;;4.17;;
54145;SDS011;65909;49.422;7.738;2023-07-09T05:38:43;6.03;;;4.40;;
54145;SDS011;65909;49.422;7.738;2023-07-09T05:41:09;7.55;;;4.30;;
54145;SDS011;65909;49.422;7.738;2023-07-09T05:43:35;6.10;;;3.95;;
54145;SDS011;65909;49.422;7.738;2023-07-09T05:46:04;5.63;;;4.13;;
54145;SDS011;65909;49.422;7.738;2023-07-09T05:48:29;10.48;;;4.25;;
54145;SDS011;65909;49.422;7.738;2023-07-09T05:50:54;8.07;;;4.17;;
54145;SDS011;65909;49.422;7.738;2023-07-09T05:53:20;5.80;;;3.90;;
54145;SDS011;65909;49.422;7.738;2023-07-09T05:55:45;11.50;;;4.72;;
54145;SDS011;65909;49.422;7.738;2023-07-09T05:58:10;9.37;;;4.43;;
54145;SDS011;65909;49.422;7.738;2023-07-09T06:00:35;6.40;;;3.97;;
54145;SDS011;65909;49.422;7.738;2023-07-09T06:03:03;6.05;;;4.00;;
54145;SDS011;65909;49.422;7.738;2023-07-09T06:05:32;8.70;;;4.63;;
54145;SDS011;65909;49.422;7.738;2023-07-09T06:07:57;6.53;;;4.10;;
54145;SDS011;65909;49.422;7.738;2023-07-09T06:10:22;9.07;;;5.30;;
54145;SDS011;65909;49.422;7.738;2023-07-09T06:12:47;11.27;;;4.30;;
54145;SDS011;65909;49.422;7.738;2023-07-09T06:15:13;7.28;;;4.43;;
54145;SDS011;65909;49.422;7.738;2023-07-09T06:17:39;8.30;;;4.50;;
54145;SDS011;65909;49.422;7.738;2023-07-09T06:20:04;7.77;;;4.50;;
54145;SDS011;65909;49.422;7.738;2023-07-09T06:22:29;8.05;;;5.00;;
54145;SDS011;65909;49.422;7.738;2023-07-09T06:24:55;8.30;;;4.83;;
54145;SDS011;65909;49.422;7.738;2023-07-09T06:27:20;7.73;;;4.23;;
54145;SDS011;65909;49.422;7.738;2023-07-09T06:29:45;10.20;;;4.20;;
54145;SDS011;65909;49.422;7.738;2023-07-09T06:32:10;5.37;;;4.37;;
54145;SDS011;65909;49.422;7.738;2023-07-09T06:34:35;7.07;;;4.13;;
54145;SDS011;65909;49.422;7.738;2023-07-09T06:37:00;4.80;;;3.70;;
54145;SDS011;65909;49.422;7.738;2023-07-09T06:39:26;4.67;;;4.00;;
54145;SDS011;65909;49.422;7.738;2023-07-09T06:41:51;7.87;;;4.03;;
54145;SDS011;65909;49.422;7.738;2023-07-09T06:44:16;7.65;;;3.88;;
54145;SDS011;65909;49.422;7.738;2023-07-09T06:46:42;5.93;;;3.20;;
54145;SDS011;65909;49.422;7.738;2023-07-09T06:49:07;5.70;;;3.53;;
54145;SDS011;65909;49.422;7.738;2023-07-09T06:51:32;6.45;;;4.05;;
54145;SDS011;65909;49.422;7.738;2023-07-09T06:53:58;5.90;;;4.00;;
54145;SDS011;65909;49.422;7.738;2023-07-09T06:56:23;7.18;;;4.03;;
54145;SDS011;65909;49.422;7.738;2023-07-09T06:58:49;5.63;;;3.80;;
54145;SDS011;65909;49.422;7.738;2023-07-09T07:01:14;7.37;;;4.20;;
54145;SDS011;65909;49.422;7.738;2023-07-09T07:03:39;6.33;;;4.17;;
54145;SDS011;65909;49.422;7.738;2023-07-09T07:06:04;6.20;;;3.77;;
54145;SDS011;65909;49.422;7.738;2023-07-09T07:08:33;5.25;;;4.10;;
54145;SDS011;65909;49.422;7.738;2023-07-09T07:11:00;6.67;;;4.10;;
54145;SDS011;65909;49.422;7.738;2023-07-09T07:13:29;6.13;;;3.88;;
54145;SDS011;65909;49.422;7.738;2023-07-09T07:15:55;5.25;;;3.88;;
54145;SDS011;65909;49.422;7.738;2023-07-09T07:18:20;7.60;;;4.05;;
54145;SDS011;65909;49.422;7.738;2023-07-09T07:20:45;6.83;;;3.83;;
54145;SDS011;65909;49.422;7.738;2023-07-09T07:23:11;5.28;;;3.35;;
54145;SDS011;65909;49.422;7.738;2023-07-09T07:25:36;6.60;;;3.47;;
54145;SDS011;65909;49.422;7.738;2023-07-09T07:28:01;6.00;;;3.47;;
54145;SDS011;65909;49.422;7.738;2023-07-09T07:30:26;6.90;;;3.90;;
54145;SDS011;65909;49.422;7.738;2023-07-09T07:32:52;6.73;;;3.87;;
54145;SDS011;65909;49.422;7.738;2023-07-09T07:35:17;5.00;;;3.30;;
54145;SDS011;65909;49.422;7.738;2023-07-09T07:37:43;4.93;;;3.10;;
54145;SDS011;65909;49.422;7.738;2023-07-09T07:40:09;5.82;;;3.70;;
54145;SDS011;65909;49.422;7.738;2023-07-09T07:42:34;7.35;;;3.83;;
54145;SDS011;65909;49.422;7.738;2023-07-09T07:44:59;7.25;;;4.85;;
54145;SDS011;65909;49.422;7.738;2023-07-09T07:47:25;5.73;;;3.63;;
54145;SDS011;65909;49.422;7.738;2023-07-09T07:49:52;8.00;;;3.45;;
54145;SDS011;65909;49.422;7.738;2023-07-09T07:52:17;7.03;;;3.57;;
54145;SDS011;65909;49.422;7.738;2023-07-09T07:54:42;3.70;;;3.20;;
54145;SDS011;65909;49.422;7.738;2023-07-09T07:57:07;6.07;;;3.83;;
54145;SDS011;65909;49.422;7.738;2023-07-09T07:59:34;5.32;;;3.80;;
54145;SDS011;65909;49.422;7.738;2023-07-09T08:01:59;8.40;;;3.78;;
54145;SDS011;65909;49.422;7.738;2023-07-09T08:04:25;8.23;;;3.78;;
54145;SDS011;65909;49.422;7.738;2023-07-09T08:06:50;5.63;;;3.20;;
54145;SDS011;65909;49.422;7.738;2023-07-09T08:09:17;5.22;;;3.30;;
54145;SDS011;65909;49.422;7.738;2023-07-09T08:11:42;6.07;;;3.47;;
54145;SDS011;65909;49.422;7.738;2023-07-09T08:14:07;6.90;;;3.57;;
54145;SDS011;65909;49.422;7.738;2023-07-09T08:16:32;4.87;;;3.23;;
54145;SDS011;65909;49.422;7.738;2023-07-09T08:18:57;4.60;;;3.13;;
54145;SDS011;65909;49.422;7.738;2023-07-09T08:21:23;8.37;;;3.10;;
54145;SDS011;65909;49.422;7.738;2023-07-09T08:23:48;5.00;;;3.30;;
54145;SDS011;65909;49.422;7.738;2023-07-09T08:26:13;3.73;;;3.00;;
54145;SDS011;65909;49.422;7.738;2023-07-09T08:28:38;4.93;;;3.10;;
54145;SDS011;65909;49.422;7.738;2023-07-09T08:31:04;5.37;;;2.90;;
54145;SDS011;65909;49.422;7.738;2023-07-09T08:33:29;5.73;;;3.17;;
54145;SDS011;65909;49.422;7.738;2023-07-09T08:35:54;6.07;;;3.75;;
54145;SDS011;65909;49.422;7.738;2023-07-09T08:38:20;5.80;;;2.90;;
54145;SDS011;65909;49.422;7.738;2023-07-09T08:41:35;6.47;;;2.90;;
54145;SDS011;65909;49.422;7.738;2023-07-09T08:43:36;6.20;;;3.10;;
54145;SDS011;65909;49.422;7.738;2023-07-09T08:46:10;4.63;;;3.10;;
54145;SDS011;65909;49.422;7.738;2023-07-09T08:48:40;5.57;;;3.00;;
54145;SDS011;65909;49.422;7.738;2023-07-09T08:51:10;5.32;;;2.97;;
54145;SDS011;65909;49.422;7.738;2023-07-09T08:53:42;4.88;;;3.03;;
54145;SDS011;65909;49.422;7.738;2023-07-09T08:56:09;6.15;;;2.83;;
54145;SDS011;65909;49.422;7.738;2023-07-09T08:58:34;3.35;;;2.67;;
54145;SDS011;65909;49.422;7.738;2023-07-09T09:01:02;5.22;;;2.75;;
54145;SDS011;65909;49.422;7.738;2023-07-09T09:03:34;5.22;;;2.90;;
54145;SDS011;65909;49.422;7.738;2023-07-09T09:06:02;4.97;;;3.05;;
54145;SDS011;65909;49.422;7.738;2023-07-09T09:13:37;4.45;;;3.22;;
54145;SDS011;65909;49.422;7.738;2023-07-09T09:16:04;5.00;;;3.05;;
54145;SDS011;65909;49.422;7.738;2023-07-09T09:18:31;3.30;;;2.70;;
54145;SDS011;65909;49.422;7.738;2023-07-09T09:21:03;5.72;;;3.08;;
54145;SDS011;65909;49.422;7.738;2023-07-09T09:23:37;4.90;;;3.30;;
54145;SDS011;65909;49.422;7.738;2023-07-09T09:26:03;5.60;;;3.05;;
54145;SDS011;65909;49.422;7.738;2023-07-09T09:28:35;4.10;;;3.03;;
54145;SDS011;65909;49.422;7.738;2023-07-09T09:31:00;4.50;;;3.05;;
54145;SDS011;65909;49.422;7.738;2023-07-09T09:33:36;4.85;;;2.97;;
54145;SDS011;65909;49.422;7.738;2023-07-09T09:36:02;5.78;;;3.40;;
54145;SDS011;65909;49.422;7.738;2023-07-09T09:38:28;6.07;;;3.20;;
54145;SDS011;65909;49.422;7.738;2023-07-09T09:40:59;6.30;;;2.80;;
54145;SDS011;65909;49.422;7.738;2023-07-09T09:43:24;4.93;;;3.10;;
54145;SDS011;65909;49.422;7.738;2023-07-09T09:45:51;5.88;;;3.17;;
54145;SDS011;65909;49.422;7.738;2023-07-09T09:48:29;6.60;;;2.87;;
54145;SDS011;65909;49.422;7.738;2023-07-09T09:50:55;4.82;;;2.80;;
54145;SDS011;65909;49.422;7.738;2023-07-09T09:53:23;5.88;;;3.05;;
54145;SDS011;65909;49.422;7.738;2023-07-09T09:55:50;6.10;;;3.15;;
54145;SDS011;65909;49.422;7.738;2023-07-09T09:58:16;7.05;;;3.33;;
54145;SDS011;65909;49.422;7.738;2023-07-09T10:00:51;4.15;;;2.80;;
54145;SDS011;65909;49.422;7.738;2023-07-09T10:03:17;4.40;;;3.10;;
54145;SDS011;65909;49.422;7.738;2023-07-09T10:05:53;5.72;;;3.00;;
54145;SDS011;65909;49.422;7.738;2023-07-09T10:13:44;4.93;;;2.92;;
54145;SDS011;65909;49.422;7.738;2023-07-09T10:16:21;5.07;;;3.03;;
54145;SDS011;65909;49.422;7.738;2023-07-09T10:18:53;6.28;;;2.88;;
54145;SDS011;65909;49.422;7.738;2023-07-09T10:23:48;6.18;;;3.35;;
54145;SDS011;65909;49.422;7.738;2023-07-09T10:26:23;4.10;;;3.03;;
54145;SDS011;65909;49.422;7.738;2023-07-09T10:28:56;4.53;;;2.70;;
54145;SDS011;65909;49.422;7.738;2023-07-09T10:33:55;5.88;;;3.30;;
54145;SDS011;65909;49.422;7.738;2023-07-09T10:41:30;4.60;;;2.78;;
54145;SDS011;65909;49.422;7.738;2023-07-09T10:44:00;5.70;;;2.75;;
54145;SDS011;65909;49.422;7.738;2023-07-09T10:46:31;7.43;;;3.00;;
54145;SDS011;65909;49.422;7.738;2023-07-09T10:48:57;6.85;;;2.80;;
54145;SDS011;65909;49.422;7.738;2023-07-09T10:51:28;5.43;;;2.90;;
54145;SDS011;65909;49.422;7.738;2023-07-09T10:56:23;8.93;;;2.88;;
54145;SDS011;65909;49.422;7.738;2023-07-09T11:01:18;3.88;;;2.80;;
54145;SDS011;65909;49.422;7.738;2023-07-09T11:03:50;4.05;;;2.95;;
54145;SDS011;65909;49.422;7.738;2023-07-09T11:06:18;5.97;;;3.13;;
54145;SDS011;65909;49.422;7.738;2023-07-09T11:08:44;7.05;;;2.88;;
54145;SDS011;65909;49.422;7.738;2023-07-09T11:11:12;5.32;;;3.05;;
54145;SDS011;65909;49.422;7.738;2023-07-09T11:13:42;4.10;;;3.20;;
54145;SDS011;65909;49.422;7.738;2023-07-09T11:16:11;5.13;;;2.85;;
54145;SDS011;65909;49.422;7.738;2023-07-09T11:18:38;4.93;;;2.88;;
54145;SDS011;65909;49.422;7.738;2023-07-09T11:21:07;6.03;;;2.47;;
54145;SDS011;65909;49.422;7.738;2023-07-09T11:28:48;4.43;;;2.58;;
54145;SDS011;65909;49.422;7.738;2023-07-09T11:31:31;4.28;;;2.58;;
54145;SDS011;65909;49.422;7.738;2023-07-09T11:34:15;5.10;;;2.90;;
54145;SDS011;65909;49.422;7.738;2023-07-09T11:41:52;5.88;;;2.72;;
54145;SDS011;65909;49.422;7.738;2023-07-09T11:44:19;3.23;;;2.30;;
54145;SDS011;65909;49.422;7.738;2023-07-09T11:49:15;4.07;;;2.70;;
54145;SDS011;65909;49.422;7.738;2023-07-09T11:51:44;4.30;;;2.35;;
54145;SDS011;65909;49.422;7.738;2023-07-09T11:54:13;4.88;;;2.85;;
54145;SDS011;65909;49.422;7.738;2023-07-09T11:56:38;5.18;;;3.03;;
54145;SDS011;65909;49.422;7.738;2023-07-09T11:59:04;5.87;;;2.50;;
54145;SDS011;65909;49.422;7.738;2023-07-09T12:01:47;5.80;;;2.90;;
54145;SDS011;65909;49.422;7.738;2023-07-09T12:04:17;3.75;;;2.15;;
54145;SDS011;65909;49.422;7.738;2023-07-09T12:06:43;5.10;;;2.58;;
54145;SDS011;65909;49.422;7.738;2023-07-09T12:09:13;4.65;;;2.42;;
54145;SDS011;65909;49.422;7.738;2023-07-09T12:11:43;6.47;;;2.85;;
54145;SDS011;65909;49.422;7.738;2023-07-09T12:14:12;4.00;;;2.88;;
54145;SDS011;65909;49.422;7.738;2023-07-09T12:16:39;7.32;;;2.70;;
54145;SDS011;65909;49.422;7.738;2023-07-09T12:22:15;7.07;;;2.88;;
54145;SDS011;65909;49.422;7.738;2023-07-09T12:24:42;6.47;;;2.75;;
54145;SDS011;65909;49.422;7.738;2023-07-09T12:27:17;5.93;;;2.90;;
54145;SDS011;65909;49.422;7.738;2023-07-09T12:29:42;4.88;;;2.58;;
54145;SDS011;65909;49.422;7.738;2023-07-09T12:32:12;4.28;;;2.50;;
54145;SDS011;65909;49.422;7.738;2023-07-09T12:34:38;5.30;;;2.50;;
54145;SDS011;65909;49.422;7.738;2023-07-09T12:37:03;3.83;;;2.30;;
54145;SDS011;65909;49.422;7.738;2023-07-09T12:39:29;4.87;;;2.27;;
54145;SDS011;65909;49.422;7.738;2023-07-09T12:41:55;4.45;;;3.00;;
54145;SDS011;65909;49.422;7.738;2023-07-09T12:44:21;3.85;;;2.70;;
54145;SDS011;65909;49.422;7.738;2023-07-09T12:46:47;6.70;;;2.90;;
54145;SDS011;65909;49.422;7.738;2023-07-09T12:49:26;4.53;;;2.80;;
54145;SDS011;65909;49.422;7.738;2023-07-09T12:51:55;4.43;;;2.53;;
54145;SDS011;65909;49.422;7.738;2023-07-09T12:54:20;4.85;;;2.85;;
54145;SDS011;65909;49.422;7.738;2023-07-09T12:56:55;3.90;;;2.63;;
54145;SDS011;65909;49.422;7.738;2023-07-09T12:59:24;4.75;;;2.55;;
54145;SDS011;65909;49.422;7.738;2023-07-09T13:02:04;4.35;;;2.40;;
54145;SDS011;65909;49.422;7.738;2023-07-09T13:04:38;4.93;;;2.50;;
54145;SDS011;65909;49.422;7.738;2023-07-09T13:07:04;8.57;;;2.90;;
54145;SDS011;65909;49.422;7.738;2023-07-09T13:09:29;4.30;;;2.63;;
54145;SDS011;65909;49.422;7.738;2023-07-09T13:11:55;5.45;;;2.53;;
54145;SDS011;65909;49.422;7.738;2023-07-09T13:14:21;3.75;;;2.65;;
54145;SDS011;65909;49.422;7.738;2023-07-09T13:16:47;5.50;;;2.80;;
54145;SDS011;65909;49.422;7.738;2023-07-09T13:19:12;4.93;;;3.17;;
54145;SDS011;65909;49.422;7.738;2023-07-09T13:21:38;6.93;;;3.10;;
54145;SDS011;65909;49.422;7.738;2023-07-09T13:24:23;5.70;;;3.40;;
54145;SDS011;65909;49.422;7.738;2023-07-09T13:26:48;4.53;;;2.92;;
54145;SDS011;65909;49.422;7.738;2023-07-09T13:29:14;5.03;;;2.67;;
54145;SDS011;65909;49.422;7.738;2023-07-09T13:31:40;4.30;;;2.83;;
54145;SDS011;65909;49.422;7.738;2023-07-09T13:34:08;5.63;;;2.88;;
54145;SDS011;65909;49.422;7.738;2023-07-09T13:36:38;3.85;;;2.45;;
54145;SDS011;65909;49.422;7.738;2023-07-09T13:39:03;8.60;;;3.20;;
54145;SDS011;65909;49.422;7.738;2023-07-09T13:41:28;3.97;;;2.53;;
54145;SDS011;65909;49.422;7.738;2023-07-09T13:43:54;6.30;;;2.90;;
54145;SDS011;65909;49.422;7.738;2023-07-09T13:46:19;4.70;;;2.90;;
54145;SDS011;65909;49.422;7.738;2023-07-09T13:48:44;7.47;;;3.13;;
54145;SDS011;65909;49.422;7.738;2023-07-09T13:51:20;4.47;;;2.87;;
54145;SDS011;65909;49.422;7.738;2023-07-09T13:53:47;3.60;;;2.33;;
54145;SDS011;65909;49.422;7.738;2023-07-09T13:56:13;5.55;;;3.03;;
54145;SDS011;65909;49.422;7.738;2023-07-09T13:58:38;4.87;;;3.30;;
54145;SDS011;65909;49.422;7.738;2023-07-09T14:01:23;4.43;;;2.72;;
54145;SDS011;65909;49.422;7.738;2023-07-09T14:03:48;3.65;;;2.70;;
54145;SDS011;65909;49.422;7.738;2023-07-09T14:06:14;4.50;;;2.92;;
54145;SDS011;65909;49.422;7.738;2023-07-09T14:08:40;6.22;;;3.47;;
54145;SDS011;65909;49.422;7.738;2023-07-09T14:11:12;6.73;;;3.50;;
54145;SDS011;65909;49.422;7.738;2023-07-09T14:13:37;6.53;;;5.47;;
54145;SDS011;65909;49.422;7.738;2023-07-09T14:16:03;8.10;;;4.65;;
54145;SDS011;65909;49.422;7.738;2023-07-09T14:18:28;9.25;;;4.72;;
54145;SDS011;65909;49.422;7.738;2023-07-09T14:20:53;7.27;;;4.27;;
54145;SDS011;65909;49.422;7.738;2023-07-09T14:23:19;6.05;;;4.68;;
54145;SDS011;65909;49.422;7.738;2023-07-09T14:25:44;5.75;;;3.50;;
54145;SDS011;65909;49.422;7.738;2023-07-09T14:28:11;6.63;;;3.50;;
54145;SDS011;65909;49.422;7.738;2023-07-09T14:30:36;6.05;;;4.07;;
54145;SDS011;65909;49.422;7.738;2023-07-09T14:33:01;7.27;;;4.13;;
54145;SDS011;65909;49.422;7.738;2023-07-09T14:35:27;5.80;;;3.90;;
54145;SDS011;65909;49.422;7.738;2023-07-09T14:37:52;4.37;;;3.30;;
54145;SDS011;65909;49.422;7.738;2023-07-09T14:40:19;5.18;;;3.47;;
54145;SDS011;65909;49.422;7.738;2023-07-09T14:42:48;4.88;;;3.00;;
54145;SDS011;65909;49.422;7.738;2023-07-09T14:47:41;9.77;;;3.70;;
54145;SDS011;65909;49.422;7.738;2023-07-09T14:50:07;8.05;;;3.35;;
54145;SDS011;65909;49.422;7.738;2023-07-09T14:52:32;6.15;;;3.28;;
54145;SDS011;65909;49.422;7.738;2023-07-09T14:54:57;6.00;;;3.07;;
54145;SDS011;65909;49.422;7.738;2023-07-09T14:57:23;5.60;;;3.20;;
54145;SDS011;65909;49.422;7.738;2023-07-09T14:59:49;5.13;;;3.00;;
54145;SDS011;65909;49.422;7.738;2023-07-09T15:02:21;5.70;;;3.08;;
54145;SDS011;65909;49.422;7.738;2023-07-09T15:04:47;6.50;;;2.97;;
54145;SDS011;65909;49.422;7.738;2023-07-09T15:07:13;4.80;;;3.00;;
54145;SDS011;65909;49.422;7.738;2023-07-09T15:09:38;4.68;;;2.80;;
54145;SDS011;65909;49.422;7.738;2023-07-09T15:12:03;4.97;;;3.10;;
54145;SDS011;65909;49.422;7.738;2023-07-09T15:14:29;4.43;;;2.90;;
54145;SDS011;65909;49.422;7.738;2023-07-09T15:16:54;5.73;;;3.20;;
54145;SDS011;65909;49.422;7.738;2023-07-09T15:19:20;5.28;;;3.22;;
54145;SDS011;65909;49.422;7.738;2023-07-09T15:21:46;7.72;;;3.40;;
54145;SDS011;65909;49.422;7.738;2023-07-09T15:24:16;3.45;;;2.88;;
54145;SDS011;65909;49.422;7.738;2023-07-09T15:26:44;5.65;;;3.38;;
54145;SDS011;65909;49.422;7.738;2023-07-09T15:29:13;6.68;;;3.05;;
54145;SDS011;65909;49.422;7.738;2023-07-09T15:31:39;6.90;;;3.10;;
54145;SDS011;65909;49.422;7.738;2023-07-09T15:34:04;5.33;;;3.17;;